sensor_id;sensor_type;location;lat;lon;timestamp;P1;durP1;ratioP1;P2;durP2;ratioP2
44842;SDS011;31884;52.538;13.820;2022-09-28T00:01:51;3.75;;;1.98;;
44842;SDS011;31884;52.538;13.820;2022-09-28T00:04:17;5.30;;;2.10;;
44842;SDS011;31884;52.538;13.820;2022-09-28T00:06:42;3.95;;;1.70;;
44842;SDS011;31884;52.538;13.820;2022-09-28T00:09:08;2.17;;;1.98;;
44842;SDS011;31884;52.538;13.820;2022-09-28T00:11:34;2.20;;;1.60;;
44842;SDS011;31884;52.538;13.820;2022-09-28T00:14:00;4.13;;;2.15;;
44842;SDS011;31884;52.538;13.820;2022-09-28T00:16:29;3.67;;;1.80;;
44842;SDS011;31884;52.538;13.820;2022-09-28T00:18:57;2.83;;;1.95;;
44842;SDS011;31884;52.538;13.820;2022-09-28T00:21:24;2.60;;;1.80;;
44842;SDS011;31884;52.538;13.820;2022-09-28T00:23:52;2.03;;;1.70;;
44842;SDS011;31884;52.538;13.820;2022-09-28T00:26:40;2.63;;;2.10;;
44842;SDS011;31884;52.538;13.820;2022-09-28T00:31:45;2.08;;;1.60;;
44842;SDS011;31884;52.538;13.820;2022-09-28T00:34:11;2.50;;;1.80;;
44842;SDS011;31884;52.538;13.820;2022-09-28T00:36:37;3.20;;;1.70;;
44842;SDS011;31884;52.538;13.820;2022-09-28T00:39:04;2.20;;;1.90;;
44842;SDS011;31884;52.538;13.820;2022-09-28T00:41:32;2.85;;;2.10;;
44842;SDS011;31884;52.538;13.820;2022-09-28T00:46:52;2.15;;;1.55;;
44842;SDS011;31884;52.538;13.820;2022-09-28T00:49:26;3.92;;;1.77;;
44842;SDS011;31884;52.538;13.820;2022-09-28T00:52:21;6.15;;;2.35;;
44842;SDS011;31884;52.538;13.820;2022-09-28T00:54:52;2.28;;;1.75;;
44842;SDS011;31884;52.538;13.820;2022-09-28T00:57:21;3.08;;;1.90;;
44842;SDS011;31884;52.538;13.820;2022-09-28T00:59:48;2.58;;;1.67;;
44842;SDS011;31884;52.538;13.820;2022-09-28T01:02:14;1.90;;;1.55;;
44842;SDS011;31884;52.538;13.820;2022-09-28T01:04:39;2.92;;;1.85;;
44842;SDS011;31884;52.538;13.820;2022-09-28T01:07:05;2.97;;;1.95;;
44842;SDS011;31884;52.538;13.820;2022-09-28T01:09:32;2.75;;;1.90;;
44842;SDS011;31884;52.538;13.820;2022-09-28T01:12:02;2.45;;;1.33;;
44842;SDS011;31884;52.538;13.820;2022-09-28T01:14:27;1.70;;;1.40;;
44842;SDS011;31884;52.538;13.820;2022-09-28T01:17:02;1.90;;;1.65;;
44842;SDS011;31884;52.538;13.820;2022-09-28T01:19:41;4.25;;;1.70;;
44842;SDS011;31884;52.538;13.820;2022-09-28T01:22:36;2.25;;;1.70;;
44842;SDS011;31884;52.538;13.820;2022-09-28T01:25:20;2.72;;;1.70;;
44842;SDS011;31884;52.538;13.820;2022-09-28T01:28:03;3.40;;;1.88;;
44842;SDS011;31884;52.538;13.820;2022-09-28T01:30:35;4.18;;;2.20;;
44842;SDS011;31884;52.538;13.820;2022-09-28T01:33:08;2.33;;;2.13;;
44842;SDS011;31884;52.538;13.820;2022-09-28T01:35:49;1.77;;;1.60;;
44842;SDS011;31884;52.538;13.820;2022-09-28T01:38:22;3.20;;;2.30;;
44842;SDS011;31884;52.538;13.820;2022-09-28T01:40:52;2.47;;;2.20;;
44842;SDS011;31884;52.538;13.820;2022-09-28T01:43:23;2.63;;;2.03;;
44842;SDS011;31884;52.538;13.820;2022-09-28T01:45:54;2.58;;;2.10;;
44842;SDS011;31884;52.538;13.820;2022-09-28T01:48:38;2.45;;;2.25;;
44842;SDS011;31884;52.538;13.820;2022-09-28T01:51:13;2.70;;;2.30;;
44842;SDS011;31884;52.538;13.820;2022-09-28T01:53:53;3.83;;;2.50;;
44842;SDS011;31884;52.538;13.820;2022-09-28T01:56:31;2.25;;;1.90;;
44842;SDS011;31884;52.538;13.820;2022-09-28T02:01:34;2.47;;;2.17;;
44842;SDS011;31884;52.538;13.820;2022-09-28T02:06:36;3.60;;;2.50;;
44842;SDS011;31884;52.538;13.820;2022-09-28T02:09:09;2.30;;;2.03;;
44842;SDS011;31884;52.538;13.820;2022-09-28T02:11:40;4.22;;;2.45;;
44842;SDS011;31884;52.538;13.820;2022-09-28T02:14:10;5.68;;;2.40;;
44842;SDS011;31884;52.538;13.820;2022-09-28T02:16:42;3.20;;;2.45;;
44842;SDS011;31884;52.538;13.820;2022-09-28T02:19:16;2.22;;;1.90;;
44842;SDS011;31884;52.538;13.820;2022-09-28T02:21:48;4.80;;;2.10;;
44842;SDS011;31884;52.538;13.820;2022-09-28T02:24:27;2.13;;;1.85;;
44842;SDS011;31884;52.538;13.820;2022-09-28T02:27:02;5.32;;;2.33;;
44842;SDS011;31884;52.538;13.820;2022-09-28T02:29:41;4.47;;;2.47;;
44842;SDS011;31884;52.538;13.820;2022-09-28T02:32:06;2.65;;;2.10;;
44842;SDS011;31884;52.538;13.820;2022-09-28T02:34:32;3.17;;;2.08;;
44842;SDS011;31884;52.538;13.820;2022-09-28T02:36:58;3.03;;;2.05;;
44842;SDS011;31884;52.538;13.820;2022-09-28T02:39:25;3.08;;;2.40;;
44842;SDS011;31884;52.538;13.820;2022-09-28T02:41:56;4.30;;;2.30;;
44842;SDS011;31884;52.538;13.820;2022-09-28T02:44:39;4.60;;;2.67;;
44842;SDS011;31884;52.538;13.820;2022-09-28T02:47:28;3.10;;;2.28;;
44842;SDS011;31884;52.538;13.820;2022-09-28T02:50:17;4.22;;;2.65;;
44842;SDS011;31884;52.538;13.820;2022-09-28T02:55:42;3.72;;;2.92;;
44842;SDS011;31884;52.538;13.820;2022-09-28T02:58:18;3.67;;;3.08;;
44842;SDS011;31884;52.538;13.820;2022-09-28T03:03:49;3.85;;;2.70;;
44842;SDS011;31884;52.538;13.820;2022-09-28T03:09:15;4.05;;;2.80;;
44842;SDS011;31884;52.538;13.820;2022-09-28T03:11:54;4.53;;;2.95;;
44842;SDS011;31884;52.538;13.820;2022-09-28T03:14:22;5.68;;;2.80;;
44842;SDS011;31884;52.538;13.820;2022-09-28T03:16:48;4.65;;;2.10;;
44842;SDS011;31884;52.538;13.820;2022-09-28T03:19:15;5.05;;;2.88;;
44842;SDS011;31884;52.538;13.820;2022-09-28T03:21:43;4.20;;;3.17;;
44842;SDS011;31884;52.538;13.820;2022-09-28T03:24:08;5.07;;;3.13;;
44842;SDS011;31884;52.538;13.820;2022-09-28T03:26:35;3.30;;;2.90;;
44842;SDS011;31884;52.538;13.820;2022-09-28T03:29:01;4.60;;;3.40;;
44842;SDS011;31884;52.538;13.820;2022-09-28T03:31:27;5.05;;;3.00;;
44842;SDS011;31884;52.538;13.820;2022-09-28T03:33:52;4.70;;;3.17;;
44842;SDS011;31884;52.538;13.820;2022-09-28T03:36:18;4.57;;;3.28;;
44842;SDS011;31884;52.538;13.820;2022-09-28T03:38:43;6.28;;;3.83;;
44842;SDS011;31884;52.538;13.820;2022-09-28T03:41:09;3.85;;;2.97;;
44842;SDS011;31884;52.538;13.820;2022-09-28T03:43:34;5.47;;;3.10;;
44842;SDS011;31884;52.538;13.820;2022-09-28T03:46:00;6.32;;;3.72;;
44842;SDS011;31884;52.538;13.820;2022-09-28T03:48:27;5.35;;;3.35;;
44842;SDS011;31884;52.538;13.820;2022-09-28T03:50:55;5.72;;;3.47;;
44842;SDS011;31884;52.538;13.820;2022-09-28T03:53:22;6.13;;;3.47;;
44842;SDS011;31884;52.538;13.820;2022-09-28T03:55:48;4.45;;;3.10;;
44842;SDS011;31884;52.538;13.820;2022-09-28T03:58:14;4.55;;;3.38;;
44842;SDS011;31884;52.538;13.820;2022-09-28T04:00:40;6.47;;;3.28;;
44842;SDS011;31884;52.538;13.820;2022-09-28T04:03:06;5.95;;;4.18;;
44842;SDS011;31884;52.538;13.820;2022-09-28T04:05:32;7.25;;;3.97;;
44842;SDS011;31884;52.538;13.820;2022-09-28T04:07:57;6.90;;;3.53;;
44842;SDS011;31884;52.538;13.820;2022-09-28T04:10:23;6.13;;;3.35;;
44842;SDS011;31884;52.538;13.820;2022-09-28T04:12:52;5.78;;;4.05;;
44842;SDS011;31884;52.538;13.820;2022-09-28T04:15:19;5.03;;;3.28;;
44842;SDS011;31884;52.538;13.820;2022-09-28T04:17:44;4.32;;;3.17;;
44842;SDS011;31884;52.538;13.820;2022-09-28T04:20:10;6.60;;;4.00;;
44842;SDS011;31884;52.538;13.820;2022-09-28T04:22:35;6.75;;;3.58;;
44842;SDS011;31884;52.538;13.820;2022-09-28T04:25:04;6.40;;;3.95;;
44842;SDS011;31884;52.538;13.820;2022-09-28T04:27:30;6.75;;;3.78;;
44842;SDS011;31884;52.538;13.820;2022-09-28T04:30:14;5.35;;;3.70;;
44842;SDS011;31884;52.538;13.820;2022-09-28T04:32:40;7.05;;;3.50;;
44842;SDS011;31884;52.538;13.820;2022-09-28T04:35:06;4.70;;;2.80;;
44842;SDS011;31884;52.538;13.820;2022-09-28T04:37:33;6.30;;;3.47;;
44842;SDS011;31884;52.538;13.820;2022-09-28T04:39:58;6.28;;;4.05;;
44842;SDS011;31884;52.538;13.820;2022-09-28T04:42:24;8.50;;;3.85;;
44842;SDS011;31884;52.538;13.820;2022-09-28T04:44:49;6.90;;;4.13;;
44842;SDS011;31884;52.538;13.820;2022-09-28T04:47:15;6.72;;;3.38;;
44842;SDS011;31884;52.538;13.820;2022-09-28T04:49:40;4.78;;;3.22;;
44842;SDS011;31884;52.538;13.820;2022-09-28T04:52:06;6.70;;;3.42;;
44842;SDS011;31884;52.538;13.820;2022-09-28T04:54:31;7.60;;;3.42;;
44842;SDS011;31884;52.538;13.820;2022-09-28T04:56:57;6.78;;;3.45;;
44842;SDS011;31884;52.538;13.820;2022-09-28T04:59:23;6.90;;;3.53;;
44842;SDS011;31884;52.538;13.820;2022-09-28T05:01:48;7.38;;;3.85;;
44842;SDS011;31884;52.538;13.820;2022-09-28T05:04:14;14.05;;;3.50;;
44842;SDS011;31884;52.538;13.820;2022-09-28T05:06:40;7.10;;;3.60;;
44842;SDS011;31884;52.538;13.820;2022-09-28T05:09:05;6.70;;;3.67;;
44842;SDS011;31884;52.538;13.820;2022-09-28T05:11:31;6.22;;;3.97;;
44842;SDS011;31884;52.538;13.820;2022-09-28T05:13:56;5.10;;;3.40;;
44842;SDS011;31884;52.538;13.820;2022-09-28T05:16:22;5.50;;;3.60;;
44842;SDS011;31884;52.538;13.820;2022-09-28T05:18:53;7.70;;;3.75;;
44842;SDS011;31884;52.538;13.820;2022-09-28T05:21:19;7.60;;;4.30;;
44842;SDS011;31884;52.538;13.820;2022-09-28T05:23:45;6.35;;;3.55;;
44842;SDS011;31884;52.538;13.820;2022-09-28T05:26:11;5.57;;;3.50;;
44842;SDS011;31884;52.538;13.820;2022-09-28T05:28:37;7.57;;;3.88;;
44842;SDS011;31884;52.538;13.820;2022-09-28T05:31:03;4.75;;;2.92;;
44842;SDS011;31884;52.538;13.820;2022-09-28T05:33:30;7.40;;;3.95;;
44842;SDS011;31884;52.538;13.820;2022-09-28T05:35:56;6.55;;;3.20;;
44842;SDS011;31884;52.538;13.820;2022-09-28T05:38:22;6.82;;;3.78;;
44842;SDS011;31884;52.538;13.820;2022-09-28T05:40:48;7.05;;;3.67;;
44842;SDS011;31884;52.538;13.820;2022-09-28T05:43:14;6.47;;;3.35;;
44842;SDS011;31884;52.538;13.820;2022-09-28T05:45:39;6.82;;;4.15;;
44842;SDS011;31884;52.538;13.820;2022-09-28T05:48:05;6.30;;;3.90;;
44842;SDS011;31884;52.538;13.820;2022-09-28T05:50:30;5.57;;;3.60;;
44842;SDS011;31884;52.538;13.820;2022-09-28T05:53:06;6.07;;;3.50;;
44842;SDS011;31884;52.538;13.820;2022-09-28T05:55:33;5.78;;;3.20;;
44842;SDS011;31884;52.538;13.820;2022-09-28T05:58:00;6.15;;;4.03;;
44842;SDS011;31884;52.538;13.820;2022-09-28T06:00:27;8.18;;;4.10;;
44842;SDS011;31884;52.538;13.820;2022-09-28T06:02:58;6.25;;;3.63;;
44842;SDS011;31884;52.538;13.820;2022-09-28T06:05:28;6.90;;;3.90;;
44842;SDS011;31884;52.538;13.820;2022-09-28T06:07:55;4.70;;;3.30;;
44842;SDS011;31884;52.538;13.820;2022-09-28T06:10:21;6.15;;;4.20;;
44842;SDS011;31884;52.538;13.820;2022-09-28T06:12:50;7.85;;;4.40;;
44842;SDS011;31884;52.538;13.820;2022-09-28T06:15:17;8.68;;;3.75;;
44842;SDS011;31884;52.538;13.820;2022-09-28T06:17:42;5.10;;;3.58;;
44842;SDS011;31884;52.538;13.820;2022-09-28T06:20:08;5.60;;;3.85;;
44842;SDS011;31884;52.538;13.820;2022-09-28T06:22:34;6.57;;;3.45;;
44842;SDS011;31884;52.538;13.820;2022-09-28T06:25:00;5.60;;;3.40;;
44842;SDS011;31884;52.538;13.820;2022-09-28T06:27:25;2.63;;;2.40;;
44842;SDS011;31884;52.538;13.820;2022-09-28T06:29:51;4.35;;;2.67;;
44842;SDS011;31884;52.538;13.820;2022-09-28T06:32:16;5.03;;;2.83;;
44842;SDS011;31884;52.538;13.820;2022-09-28T06:34:42;4.53;;;2.85;;
44842;SDS011;31884;52.538;13.820;2022-09-28T06:37:07;2.45;;;2.17;;
44842;SDS011;31884;52.538;13.820;2022-09-28T06:39:33;3.60;;;3.03;;
44842;SDS011;31884;52.538;13.820;2022-09-28T06:41:58;3.42;;;2.70;;
44842;SDS011;31884;52.538;13.820;2022-09-28T06:44:27;3.22;;;2.53;;
44842;SDS011;31884;52.538;13.820;2022-09-28T06:46:53;3.67;;;2.72;;
44842;SDS011;31884;52.538;13.820;2022-09-28T06:49:19;3.47;;;3.10;;
44842;SDS011;31884;52.538;13.820;2022-09-28T06:51:46;3.22;;;2.83;;
44842;SDS011;31884;52.538;13.820;2022-09-28T06:54:11;5.47;;;2.92;;
44842;SDS011;31884;52.538;13.820;2022-09-28T06:56:37;2.40;;;2.20;;
44842;SDS011;31884;52.538;13.820;2022-09-28T06:59:02;3.10;;;2.13;;
44842;SDS011;31884;52.538;13.820;2022-09-28T07:01:28;2.20;;;2.00;;
44842;SDS011;31884;52.538;13.820;2022-09-28T07:03:53;2.33;;;2.08;;
44842;SDS011;31884;52.538;13.820;2022-09-28T07:06:19;5.38;;;2.88;;
44842;SDS011;31884;52.538;13.820;2022-09-28T07:08:47;2.83;;;2.47;;
44842;SDS011;31884;52.538;13.820;2022-09-28T07:11:13;3.00;;;2.33;;
44842;SDS011;31884;52.538;13.820;2022-09-28T07:13:39;3.95;;;2.45;;
44842;SDS011;31884;52.538;13.820;2022-09-28T07:16:05;2.55;;;2.22;;
44842;SDS011;31884;52.538;13.820;2022-09-28T07:18:31;2.92;;;2.45;;
44842;SDS011;31884;52.538;13.820;2022-09-28T07:20:56;3.72;;;3.10;;
44842;SDS011;31884;52.538;13.820;2022-09-28T07:23:23;4.07;;;2.88;;
44842;SDS011;31884;52.538;13.820;2022-09-28T07:25:51;4.38;;;3.78;;
44842;SDS011;31884;52.538;13.820;2022-09-28T07:28:17;3.08;;;2.70;;
44842;SDS011;31884;52.538;13.820;2022-09-28T07:30:43;2.53;;;2.33;;
44842;SDS011;31884;52.538;13.820;2022-09-28T07:33:10;4.57;;;3.20;;
44842;SDS011;31884;52.538;13.820;2022-09-28T07:35:39;2.33;;;1.90;;
44842;SDS011;31884;52.538;13.820;2022-09-28T07:38:08;3.40;;;2.72;;
44842;SDS011;31884;52.538;13.820;2022-09-28T07:40:34;3.15;;;2.80;;
44842;SDS011;31884;52.538;13.820;2022-09-28T07:43:19;3.53;;;2.60;;
44842;SDS011;31884;52.538;13.820;2022-09-28T07:45:49;5.30;;;2.85;;
44842;SDS011;31884;52.538;13.820;2022-09-28T07:48:16;3.40;;;2.88;;
44842;SDS011;31884;52.538;13.820;2022-09-28T07:50:49;3.92;;;2.90;;
44842;SDS011;31884;52.538;13.820;2022-09-28T07:53:16;3.65;;;2.97;;
44842;SDS011;31884;52.538;13.820;2022-09-28T07:55:50;3.60;;;3.10;;
44842;SDS011;31884;52.538;13.820;2022-09-28T07:58:20;4.75;;;3.65;;
44842;SDS011;31884;52.538;13.820;2022-09-28T08:00:47;3.15;;;2.85;;
44842;SDS011;31884;52.538;13.820;2022-09-28T08:03:17;4.00;;;3.30;;
44842;SDS011;31884;52.538;13.820;2022-09-28T08:05:44;3.00;;;2.70;;
44842;SDS011;31884;52.538;13.820;2022-09-28T08:08:10;3.42;;;2.80;;
44842;SDS011;31884;52.538;13.820;2022-09-28T08:10:36;4.30;;;3.00;;
44842;SDS011;31884;52.538;13.820;2022-09-28T08:13:02;2.97;;;2.45;;
44842;SDS011;31884;52.538;13.820;2022-09-28T08:15:29;4.70;;;3.60;;
44842;SDS011;31884;52.538;13.820;2022-09-28T08:18:00;2.97;;;2.67;;
44842;SDS011;31884;52.538;13.820;2022-09-28T08:20:30;3.40;;;2.72;;
44842;SDS011;31884;52.538;13.820;2022-09-28T08:23:14;6.35;;;3.63;;
44842;SDS011;31884;52.538;13.820;2022-09-28T08:25:44;2.80;;;2.50;;
44842;SDS011;31884;52.538;13.820;2022-09-28T08:28:12;11.45;;;3.40;;
44842;SDS011;31884;52.538;13.820;2022-09-28T08:30:40;5.82;;;4.32;;
44842;SDS011;31884;52.538;13.820;2022-09-28T08:33:05;4.43;;;3.97;;
44842;SDS011;31884;52.538;13.820;2022-09-28T08:35:31;5.35;;;3.55;;
44842;SDS011;31884;52.538;13.820;2022-09-28T08:37:57;4.15;;;3.47;;
44842;SDS011;31884;52.538;13.820;2022-09-28T08:40:27;8.68;;;4.07;;
44842;SDS011;31884;52.538;13.820;2022-09-28T08:42:59;5.25;;;2.90;;
44842;SDS011;31884;52.538;13.820;2022-09-28T08:45:28;5.93;;;3.25;;
44842;SDS011;31884;52.538;13.820;2022-09-28T08:50:58;5.03;;;3.60;;
44842;SDS011;31884;52.538;13.820;2022-09-28T08:53:29;4.38;;;3.60;;
44842;SDS011;31884;52.538;13.820;2022-09-28T08:56:03;6.03;;;3.88;;
44842;SDS011;31884;52.538;13.820;2022-09-28T08:58:32;5.25;;;3.75;;
44842;SDS011;31884;52.538;13.820;2022-09-28T09:01:04;6.05;;;3.90;;
44842;SDS011;31884;52.538;13.820;2022-09-28T09:03:36;4.85;;;3.45;;
44842;SDS011;31884;52.538;13.820;2022-09-28T09:09:14;4.45;;;4.05;;
44842;SDS011;31884;52.538;13.820;2022-09-28T09:12:02;7.05;;;4.80;;
44842;SDS011;31884;52.538;13.820;2022-09-28T09:17:46;4.05;;;3.08;;
44842;SDS011;31884;52.538;13.820;2022-09-28T09:20:28;3.08;;;2.70;;
44842;SDS011;31884;52.538;13.820;2022-09-28T09:23:16;2.80;;;2.47;;
44842;SDS011;31884;52.538;13.820;2022-09-28T09:25:52;3.95;;;2.72;;
44842;SDS011;31884;52.538;13.820;2022-09-28T09:30:55;6.63;;;4.13;;
44842;SDS011;31884;52.538;13.820;2022-09-28T09:36:14;19.05;;;9.55;;
44842;SDS011;31884;52.538;13.820;2022-09-28T09:42:05;5.82;;;3.35;;
44842;SDS011;31884;52.538;13.820;2022-09-28T09:47:16;3.17;;;2.40;;
44842;SDS011;31884;52.538;13.820;2022-09-28T09:50:02;4.72;;;3.10;;
44842;SDS011;31884;52.538;13.820;2022-09-28T09:52:50;3.78;;;2.53;;
44842;SDS011;31884;52.538;13.820;2022-09-28T09:55:23;2.72;;;2.30;;
44842;SDS011;31884;52.538;13.820;2022-09-28T09:57:54;3.15;;;1.63;;
44842;SDS011;31884;52.538;13.820;2022-09-28T10:00:27;2.47;;;1.80;;
44842;SDS011;31884;52.538;13.820;2022-09-28T10:02:53;3.20;;;2.08;;
44842;SDS011;31884;52.538;13.820;2022-09-28T10:05:22;2.70;;;2.15;;
44842;SDS011;31884;52.538;13.820;2022-09-28T10:07:52;2.42;;;2.00;;
44842;SDS011;31884;52.538;13.820;2022-09-28T10:10:24;2.17;;;1.80;;
44842;SDS011;31884;52.538;13.820;2022-09-28T10:13:01;5.05;;;2.20;;
44842;SDS011;31884;52.538;13.820;2022-09-28T10:15:29;2.00;;;1.60;;
44842;SDS011;31884;52.538;13.820;2022-09-28T10:17:57;1.40;;;1.30;;
44842;SDS011;31884;52.538;13.820;2022-09-28T10:20:25;1.55;;;1.42;;
44842;SDS011;31884;52.538;13.820;2022-09-28T10:22:55;2.13;;;1.83;;
44842;SDS011;31884;52.538;13.820;2022-09-28T10:25:21;3.95;;;1.35;;
44842;SDS011;31884;52.538;13.820;2022-09-28T10:27:47;2.53;;;1.55;;
44842;SDS011;31884;52.538;13.820;2022-09-28T10:30:17;2.47;;;1.75;;
44842;SDS011;31884;52.538;13.820;2022-09-28T10:32:47;2.45;;;0.73;;
44842;SDS011;31884;52.538;13.820;2022-09-28T10:37:55;1.85;;;1.10;;
44842;SDS011;31884;52.538;13.820;2022-09-28T10:43:19;3.83;;;1.90;;
44842;SDS011;31884;52.538;13.820;2022-09-28T10:54:12;1.95;;;0.82;;
44842;SDS011;31884;52.538;13.820;2022-09-28T10:56:46;0.93;;;0.80;;
44842;SDS011;31884;52.538;13.820;2022-09-28T10:59:23;1.35;;;0.88;;
44842;SDS011;31884;52.538;13.820;2022-09-28T11:04:37;0.85;;;0.73;;
44842;SDS011;31884;52.538;13.820;2022-09-28T11:07:19;1.70;;;0.90;;
44842;SDS011;31884;52.538;13.820;2022-09-28T11:09:48;1.70;;;1.10;;
44842;SDS011;31884;52.538;13.820;2022-09-28T11:12:18;1.65;;;0.90;;
44842;SDS011;31884;52.538;13.820;2022-09-28T11:14:47;1.58;;;0.93;;
44842;SDS011;31884;52.538;13.820;2022-09-28T11:19:52;1.58;;;0.90;;
44842;SDS011;31884;52.538;13.820;2022-09-28T11:22:26;3.70;;;1.42;;
44842;SDS011;31884;52.538;13.820;2022-09-28T11:25:18;1.20;;;0.90;;
44842;SDS011;31884;52.538;13.820;2022-09-28T11:30:23;1.85;;;1.20;;
44842;SDS011;31884;52.538;13.820;2022-09-28T11:32:48;1.33;;;1.10;;
44842;SDS011;31884;52.538;13.820;2022-09-28T11:35:20;1.80;;;1.15;;
44842;SDS011;31884;52.538;13.820;2022-09-28T11:49:04;1.77;;;0.82;;
44842;SDS011;31884;52.538;13.820;2022-09-28T11:51:38;3.20;;;0.93;;
44842;SDS011;31884;52.538;13.820;2022-09-28T11:54:21;3.08;;;0.93;;
44842;SDS011;31884;52.538;13.820;2022-09-28T11:56:52;1.25;;;1.00;;
44842;SDS011;31884;52.538;13.820;2022-09-28T12:01:59;1.95;;;1.42;;
44842;SDS011;31884;52.538;13.820;2022-09-28T12:04:38;2.10;;;1.60;;
44842;SDS011;31884;52.538;13.820;2022-09-28T12:07:17;1.58;;;1.38;;
44842;SDS011;31884;52.538;13.820;2022-09-28T12:09:59;4.22;;;1.58;;
44842;SDS011;31884;52.538;13.820;2022-09-28T12:12:33;2.50;;;2.13;;
44842;SDS011;31884;52.538;13.820;2022-09-28T12:15:14;2.40;;;1.70;;
44842;SDS011;31884;52.538;13.820;2022-09-28T12:17:51;3.33;;;1.65;;
44842;SDS011;31884;52.538;13.820;2022-09-28T12:22:59;2.90;;;1.35;;
44842;SDS011;31884;52.538;13.820;2022-09-28T12:25:39;2.75;;;1.33;;
44842;SDS011;31884;52.538;13.820;2022-09-28T12:28:24;0.93;;;0.93;;
44842;SDS011;31884;52.538;13.820;2022-09-28T12:30:56;1.63;;;1.30;;
44842;SDS011;31884;52.538;13.820;2022-09-28T12:33:28;1.25;;;1.00;;
44842;SDS011;31884;52.538;13.820;2022-09-28T12:35:58;1.80;;;1.08;;
44842;SDS011;31884;52.538;13.820;2022-09-28T12:41:54;1.17;;;1.08;;
44842;SDS011;31884;52.538;13.820;2022-09-28T12:44:42;1.33;;;0.80;;
44842;SDS011;31884;52.538;13.820;2022-09-28T12:52:37;1.55;;;1.00;;
44842;SDS011;31884;52.538;13.820;2022-09-28T12:55:23;1.00;;;0.90;;
44842;SDS011;31884;52.538;13.820;2022-09-28T13:01:04;2.53;;;1.10;;
44842;SDS011;31884;52.538;13.820;2022-09-28T13:09:23;1.25;;;1.00;;
44842;SDS011;31884;52.538;13.820;2022-09-28T13:14:31;1.35;;;1.00;;
44842;SDS011;31884;52.538;13.820;2022-09-28T13:25:26;2.28;;;0.95;;
44842;SDS011;31884;52.538;13.820;2022-09-28T13:27:59;1.67;;;1.20;;
44842;SDS011;31884;52.538;13.820;2022-09-28T13:30:26;1.60;;;1.30;;
44842;SDS011;31884;52.538;13.820;2022-09-28T13:32:54;1.30;;;0.98;;
44842;SDS011;31884;52.538;13.820;2022-09-28T13:35:22;1.55;;;1.20;;
44842;SDS011;31884;52.538;13.820;2022-09-28T13:38:27;1.13;;;1.02;;
44842;SDS011;31884;52.538;13.820;2022-09-28T13:43:30;1.63;;;0.98;;
44842;SDS011;31884;52.538;13.820;2022-09-28T13:46:07;2.55;;;1.00;;
44842;SDS011;31884;52.538;13.820;2022-09-28T13:48:46;2.13;;;1.13;;
44842;SDS011;31884;52.538;13.820;2022-09-28T13:57:03;2.08;;;1.23;;
44842;SDS011;31884;52.538;13.820;2022-09-28T13:59:35;1.05;;;0.88;;
44842;SDS011;31884;52.538;13.820;2022-09-28T14:02:21;3.35;;;1.35;;
44842;SDS011;31884;52.538;13.820;2022-09-28T14:05:05;1.48;;;1.00;;
44842;SDS011;31884;52.538;13.820;2022-09-28T14:07:54;1.90;;;1.20;;
44842;SDS011;31884;52.538;13.820;2022-09-28T14:10:48;1.23;;;1.13;;
44842;SDS011;31884;52.538;13.820;2022-09-28T14:16:26;1.67;;;1.10;;
44842;SDS011;31884;52.538;13.820;2022-09-28T14:19:10;2.40;;;1.60;;
44842;SDS011;31884;52.538;13.820;2022-09-28T14:27:42;3.92;;;2.40;;
44842;SDS011;31884;52.538;13.820;2022-09-28T14:30:21;3.58;;;1.80;;
44842;SDS011;31884;52.538;13.820;2022-09-28T14:32:53;1.80;;;1.48;;
44842;SDS011;31884;52.538;13.820;2022-09-28T14:37:56;2.15;;;1.17;;
44842;SDS011;31884;52.538;13.820;2022-09-28T14:40:58;2.05;;;1.38;;
44842;SDS011;31884;52.538;13.820;2022-09-28T14:43:55;1.98;;;1.10;;
44842;SDS011;31884;52.538;13.820;2022-09-28T14:46:36;1.10;;;1.00;;
44842;SDS011;31884;52.538;13.820;2022-09-28T14:51:44;2.30;;;1.30;;
44842;SDS011;31884;52.538;13.820;2022-09-28T14:54:22;2.50;;;1.10;;
44842;SDS011;31884;52.538;13.820;2022-09-28T14:59:20;1.42;;;0.90;;
44842;SDS011;31884;52.538;13.820;2022-09-28T15:01:49;1.63;;;1.10;;
44842;SDS011;31884;52.538;13.820;2022-09-28T15:04:27;2.13;;;1.40;;
44842;SDS011;31884;52.538;13.820;2022-09-28T15:06:54;2.00;;;1.30;;
44842;SDS011;31884;52.538;13.820;2022-09-28T15:09:34;1.67;;;1.02;;
44842;SDS011;31884;52.538;13.820;2022-09-28T15:12:02;1.95;;;1.27;;
44842;SDS011;31884;52.538;13.820;2022-09-28T15:15:15;1.35;;;1.15;;
44842;SDS011;31884;52.538;13.820;2022-09-28T15:17:41;0.80;;;0.80;;
44842;SDS011;31884;52.538;13.820;2022-09-28T15:23:03;2.40;;;1.48;;
44842;SDS011;31884;52.538;13.820;2022-09-28T15:25:29;2.78;;;1.40;;
44842;SDS011;31884;52.538;13.820;2022-09-28T15:28:00;3.58;;;1.60;;
44842;SDS011;31884;52.538;13.820;2022-09-28T15:30:37;3.70;;;1.30;;
44842;SDS011;31884;52.538;13.820;2022-09-28T15:33:02;1.85;;;1.50;;
44842;SDS011;31884;52.538;13.820;2022-09-28T15:35:48;2.80;;;2.30;;
44842;SDS011;31884;52.538;13.820;2022-09-28T15:38:22;5.50;;;2.70;;
44842;SDS011;31884;52.538;13.820;2022-09-28T15:40:48;5.45;;;2.78;;
44842;SDS011;31884;52.538;13.820;2022-09-28T15:43:29;4.22;;;2.50;;
44842;SDS011;31884;52.538;13.820;2022-09-28T15:48:34;4.32;;;2.42;;
44842;SDS011;31884;52.538;13.820;2022-09-28T15:53:34;4.03;;;1.92;;
44842;SDS011;31884;52.538;13.820;2022-09-28T15:56:04;2.22;;;2.00;;
44842;SDS011;31884;52.538;13.820;2022-09-28T15:58:34;4.63;;;2.55;;
44842;SDS011;31884;52.538;13.820;2022-09-28T16:03:47;5.13;;;2.85;;
44842;SDS011;31884;52.538;13.820;2022-09-28T16:06:12;3.63;;;2.40;;
44842;SDS011;31884;52.538;13.820;2022-09-28T16:08:42;4.22;;;3.38;;
44842;SDS011;31884;52.538;13.820;2022-09-28T16:11:22;3.95;;;2.97;;
44842;SDS011;31884;52.538;13.820;2022-09-28T16:16:20;3.47;;;2.38;;
44842;SDS011;31884;52.538;13.820;2022-09-28T16:18:51;5.05;;;1.98;;
44842;SDS011;31884;52.538;13.820;2022-09-28T16:23:51;3.05;;;1.77;;
44842;SDS011;31884;52.538;13.820;2022-09-28T16:26:29;2.42;;;1.70;;
44842;SDS011;31884;52.538;13.820;2022-09-28T16:28:58;6.68;;;1.98;;
44842;SDS011;31884;52.538;13.820;2022-09-28T16:31:25;2.85;;;1.73;;
44842;SDS011;31884;52.538;13.820;2022-09-28T16:34:07;2.97;;;1.95;;
44842;SDS011;31884;52.538;13.820;2022-09-28T16:36:49;3.00;;;1.90;;
44842;SDS011;31884;52.538;13.820;2022-09-28T16:39:16;2.92;;;1.50;;
44842;SDS011;31884;52.538;13.820;2022-09-28T16:41:46;3.40;;;2.28;;
44842;SDS011;31884;52.538;13.820;2022-09-28T16:44:17;6.22;;;2.67;;
44842;SDS011;31884;52.538;13.820;2022-09-28T16:46:47;3.35;;;2.58;;
44842;SDS011;31884;52.538;13.820;2022-09-28T16:49:14;3.22;;;2.63;;
44842;SDS011;31884;52.538;13.820;2022-09-28T16:51:44;2.15;;;1.65;;
44842;SDS011;31884;52.538;13.820;2022-09-28T16:54:15;2.90;;;1.80;;
44842;SDS011;31884;52.538;13.820;2022-09-28T16:57:20;1.60;;;1.50;;
44842;SDS011;31884;52.538;13.820;2022-09-28T16:59:45;2.13;;;1.83;;
44842;SDS011;31884;52.538;13.820;2022-09-28T17:02:20;12.73;;;10.20;;
44842;SDS011;31884;52.538;13.820;2022-09-28T17:04:50;5.70;;;4.90;;
44842;SDS011;31884;52.538;13.820;2022-09-28T17:07:16;4.82;;;3.55;;
44842;SDS011;31884;52.538;13.820;2022-09-28T17:09:44;11.07;;;7.85;;
44842;SDS011;31884;52.538;13.820;2022-09-28T17:12:19;8.40;;;5.80;;
44842;SDS011;31884;52.538;13.820;2022-09-28T17:14:46;16.17;;;8.07;;
44842;SDS011;31884;52.538;13.820;2022-09-28T17:17:12;22.95;;;11.80;;
44842;SDS011;31884;52.538;13.820;2022-09-28T17:19:38;18.17;;;9.75;;
44842;SDS011;31884;52.538;13.820;2022-09-28T17:22:03;8.73;;;5.35;;
44842;SDS011;31884;52.538;13.820;2022-09-28T17:24:30;7.00;;;4.45;;